createdAt,value
2023-04-03T00:01:21.051Z,80.55
2023-04-03T00:04:22.758Z,80.58
2023-04-03T00:07:24.413Z,80.46
2023-04-03T00:10:26.105Z,80.45
2023-04-03T00:13:27.879Z,80.49
2023-04-03T00:16:29.645Z,80.64
2023-04-03T00:19:31.283Z,80.86
2023-04-03T00:22:33.080Z,80.65
2023-04-03T00:25:34.644Z,80.66
2023-04-03T00:28:38.773Z,80.66
2023-04-03T00:31:41.086Z,80.84
2023-04-03T00:34:42.644Z,80.45
2023-04-03T00:37:44.781Z,80.41
2023-04-03T00:40:49.264Z,80.57
2023-04-03T00:43:50.928Z,80.61
2023-04-03T00:46:52.745Z,81.00
2023-04-03T00:49:54.531Z,80.98
2023-04-03T00:52:57.038Z,80.64
2023-04-03T00:56:00.023Z,80.69
2023-04-03T00:59:05.984Z,80.83
2023-04-03T01:02:07.722Z,80.87
2023-04-03T01:05:09.835Z,80.99
2023-04-03T01:08:11.861Z,80.76
2023-04-03T01:11:13.814Z,80.79
2023-04-03T01:14:15.379Z,80.90
2023-04-03T01:17:31.295Z,81.03
2023-04-03T01:20:38.661Z,80.98
2023-04-03T01:23:49.263Z,80.87
2023-04-03T01:26:50.872Z,80.45
2023-04-03T01:29:52.640Z,80.66
2023-04-03T01:32:54.290Z,80.65
2023-04-03T01:35:56.121Z,81.03
2023-04-03T01:38:58.189Z,80.97
2023-04-03T01:41:59.799Z,80.97
2023-04-03T01:45:05.080Z,80.97
2023-04-03T01:48:06.719Z,80.91
2023-04-03T01:51:08.379Z,81.15
2023-04-03T01:54:09.997Z,80.90
2023-04-03T01:57:11.661Z,81.01
2023-04-03T02:00:13.753Z,80.93
2023-04-03T02:03:15.420Z,81.01
2023-04-03T02:06:17.036Z,80.88
2023-04-03T02:09:18.661Z,80.86
2023-04-03T02:12:20.226Z,80.88
2023-04-03T02:15:21.818Z,80.74
2023-04-03T02:18:23.449Z,81.01
2023-04-03T02:21:25.105Z,81.01
2023-04-03T02:24:26.738Z,80.94
2023-04-03T02:27:28.327Z,80.89
2023-04-03T02:30:29.928Z,80.89
2023-04-03T02:33:31.841Z,81.02
2023-04-03T02:36:33.491Z,80.94
2023-04-03T02:39:35.926Z,81.20
2023-04-03T02:42:37.672Z,80.95
2023-04-03T02:45:39.265Z,80.95
2023-04-03T02:48:40.946Z,81.36
2023-04-03T02:51:42.663Z,81.05
2023-04-03T02:54:44.169Z,81.11
2023-04-03T02:57:45.753Z,80.96
2023-04-03T03:00:47.337Z,81.38
2023-04-03T03:03:49.283Z,81.07
2023-04-03T03:06:50.818Z,81.08
2023-04-03T03:09:52.454Z,81.33
2023-04-03T03:12:54.042Z,81.22
2023-04-03T03:15:55.781Z,81.26
2023-04-03T03:18:57.937Z,81.23
2023-04-03T03:22:00.196Z,81.08
2023-04-03T03:25:02.262Z,81.27
2023-04-03T03:28:03.916Z,81.13
2023-04-03T03:31:06.207Z,81.19
2023-04-03T03:34:07.745Z,81.25
2023-04-03T03:37:09.503Z,81.26
2023-04-03T03:40:11.541Z,81.27
2023-04-03T03:43:13.149Z,80.58
2023-04-03T03:46:14.780Z,81.12
2023-04-03T03:49:16.378Z,80.98
2023-04-03T03:52:17.921Z,81.12
2023-04-03T03:55:19.460Z,81.15
2023-04-03T03:58:20.982Z,81.10
2023-04-03T04:01:24.005Z,81.18
2023-04-03T04:04:25.554Z,81.18
2023-04-03T04:07:27.079Z,80.73
2023-04-03T04:10:28.704Z,81.04
2023-04-03T04:13:30.161Z,80.95
2023-04-03T04:16:31.963Z,81.12
2023-04-03T04:19:33.719Z,81.34
2023-04-03T04:22:35.297Z,81.35
2023-04-03T04:25:37.226Z,81.25
2023-04-03T04:28:38.953Z,80.92
2023-04-03T04:31:40.566Z,80.94
2023-04-03T04:34:42.133Z,81.33
2023-04-03T04:37:44.215Z,81.07
2023-04-03T04:40:45.687Z,80.79
2023-04-03T04:43:47.224Z,81.26
2023-04-03T04:46:48.807Z,80.91
2023-04-03T04:49:50.361Z,80.97
2023-04-03T04:52:52.236Z,81.28
2023-04-03T04:55:54.166Z,81.16
2023-04-03T04:58:55.921Z,81.26
2023-04-03T05:01:57.375Z,81.25
2023-04-03T05:04:59.028Z,80.87
2023-04-03T05:08:00.717Z,80.96
2023-04-03T05:11:02.230Z,80.99
2023-04-03T05:14:03.798Z,81.44
2023-04-03T05:17:05.683Z,81.12
2023-04-03T05:20:08.060Z,81.21
2023-04-03T05:23:10.854Z,80.93
2023-04-03T05:26:12.459Z,81.08
2023-04-03T05:29:14.113Z,80.77
2023-04-03T05:32:15.678Z,81.41
2023-04-03T05:35:17.322Z,81.36
2023-04-03T05:38:19.102Z,81.33
2023-04-03T05:41:20.758Z,81.41
2023-04-03T05:44:22.387Z,81.27
2023-04-03T05:47:23.992Z,81.11
2023-04-03T05:50:25.977Z,81.42
2023-04-03T05:53:32.760Z,80.94
2023-04-03T05:56:34.312Z,81.19
2023-04-03T05:59:35.994Z,80.81
2023-04-03T06:02:37.734Z,80.99
2023-04-03T06:05:39.586Z,80.86
2023-04-03T06:08:41.494Z,81.03
2023-04-03T06:11:43.251Z,81.26
2023-04-03T06:14:44.769Z,80.96
2023-04-03T06:17:46.402Z,81.09
2023-04-03T06:20:48.258Z,80.94
2023-04-03T06:23:49.962Z,81.21
2023-04-03T06:26:52.293Z,80.89
2023-04-03T06:29:53.944Z,80.90
2023-04-03T06:32:55.659Z,80.95
2023-04-03T06:35:58.379Z,80.74
2023-04-03T06:39:00.038Z,81.01
2023-04-03T06:42:01.610Z,80.82
2023-04-03T06:45:03.431Z,80.90
2023-04-03T06:48:05.570Z,80.62
2023-04-03T06:51:07.171Z,80.65
2023-04-03T06:54:09.156Z,80.81
2023-04-03T06:57:10.845Z,80.65
2023-04-03T07:00:13.142Z,80.53
2023-04-03T07:03:15.119Z,80.78
2023-04-03T07:06:18.357Z,80.45
2023-04-03T07:09:20.010Z,80.56
2023-04-03T07:12:21.694Z,80.67
2023-04-03T07:15:23.274Z,80.49
2023-04-03T07:18:25.745Z,80.42
2023-04-03T07:21:27.339Z,79.98
2023-04-03T07:24:29.011Z,80.03
2023-04-03T07:27:30.878Z,79.91
2023-04-03T07:30:32.573Z,79.87
2023-04-03T07:33:34.219Z,79.80
2023-04-03T07:36:36.052Z,79.88
2023-04-03T07:39:37.713Z,80.02
2023-04-03T07:42:39.367Z,79.82
2023-04-03T07:45:41.528Z,79.66
2023-04-03T07:48:43.306Z,79.62
2023-04-03T07:51:45.202Z,79.58
2023-04-03T07:54:46.868Z,79.82
2023-04-03T07:57:48.437Z,79.50
2023-04-03T08:00:50.180Z,79.71
2023-04-03T08:03:51.922Z,79.28
2023-04-03T08:06:53.794Z,79.02
2023-04-03T08:09:55.331Z,78.84
2023-04-03T08:12:56.938Z,79.08
2023-04-03T08:15:58.759Z,78.59
2023-04-03T08:19:00.378Z,78.78
2023-04-03T08:22:02.108Z,78.86
2023-04-03T08:25:03.689Z,78.85
2023-04-03T08:28:05.549Z,78.96
2023-04-03T08:31:09.723Z,78.50
2023-04-03T08:34:11.462Z,78.69
2023-04-03T08:37:13.091Z,78.33
2023-04-03T08:40:16.737Z,78.53
2023-04-03T08:43:29.962Z,78.48
2023-04-03T08:46:43.983Z,78.52
2023-04-03T08:50:11.026Z,78.71
2023-04-03T08:53:21.625Z,78.35
2023-04-03T08:56:23.869Z,78.60
2023-04-03T08:59:30.190Z,78.81
2023-04-03T09:02:44.764Z,78.24
2023-04-03T09:05:46.388Z,78.46
2023-04-03T09:09:03.151Z,78.42
2023-04-03T09:12:20.554Z,78.59
2023-04-03T09:15:35.390Z,78.54
2023-04-03T09:18:46.046Z,78.48
2023-04-03T09:21:47.545Z,78.40
2023-04-03T09:24:56.966Z,78.33
2023-04-03T09:27:58.924Z,78.83
2023-04-03T09:31:01.497Z,78.64
2023-04-03T09:34:07.400Z,78.68
2023-04-03T09:37:08.995Z,78.63
2023-04-03T09:40:25.833Z,78.92
2023-04-03T09:43:32.732Z,78.90
2023-04-03T09:46:35.353Z,78.60
2023-04-03T09:49:37.025Z,78.78
2023-04-03T09:52:39.472Z,78.58
2023-04-03T09:55:45.535Z,78.73
2023-04-03T09:59:00.840Z,78.75
2023-04-03T10:02:30.567Z,78.75
2023-04-03T10:05:35.816Z,78.51
2023-04-03T10:08:37.419Z,78.53
2023-04-03T10:11:39.098Z,78.68
2023-04-03T10:14:54.510Z,78.60
2023-04-03T10:18:14.420Z,78.39
2023-04-03T10:21:42.677Z,78.40
2023-04-03T10:25:04.644Z,78.44
2023-04-03T10:28:37.729Z,78.25
2023-04-03T10:32:04.193Z,78.58
2023-04-03T10:35:11.241Z,78.95
2023-04-03T10:38:31.338Z,79.01
2023-04-03T10:41:51.531Z,78.31
2023-04-03T10:45:12.262Z,77.09
2023-04-03T10:48:54.942Z,76.77
2023-04-03T10:52:15.335Z,77.10
2023-04-03T10:55:32.864Z,76.61
2023-04-03T10:58:37.449Z,75.80
2023-04-03T11:01:41.798Z,75.93
2023-04-03T11:04:46.353Z,76.15
2023-04-03T11:07:51.188Z,76.30
2023-04-03T11:10:55.724Z,75.89
2023-04-03T11:14:14.427Z,75.53
2023-04-03T11:17:19.100Z,75.48
2023-04-03T11:20:24.525Z,75.35
2023-04-03T11:23:30.237Z,75.61
2023-04-03T11:26:38.301Z,75.27
2023-04-03T11:29:41.618Z,75.19
2023-04-03T11:32:55.201Z,74.98
2023-04-03T11:36:19.072Z,74.70
2023-04-03T11:39:33.048Z,73.95
2023-04-03T11:42:38.541Z,73.31
2023-04-03T11:45:49.556Z,73.63
2023-04-03T11:48:51.839Z,73.73
2023-04-03T11:51:53.462Z,73.47
2023-04-03T11:54:55.232Z,73.16
2023-04-03T11:57:56.720Z,73.11
2023-04-03T12:01:10.710Z,72.76
2023-04-03T12:04:14.531Z,72.67
2023-04-03T12:07:19.575Z,72.80
2023-04-03T12:10:31.727Z,72.99
2023-04-03T12:13:34.291Z,72.64
2023-04-03T12:16:38.784Z,72.59
2023-04-03T12:19:42.841Z,72.96
2023-04-03T12:23:09.080Z,72.75
2023-04-03T12:26:22.944Z,72.62
2023-04-03T12:29:33.543Z,71.87
2023-04-03T12:32:41.245Z,72.07
2023-04-03T12:36:13.009Z,71.93
2023-04-03T12:39:23.852Z,71.37
2023-04-03T12:42:35.888Z,71.48
2023-04-03T12:45:53.586Z,70.58
2023-04-03T12:48:58.729Z,70.62
2023-04-03T12:52:00.977Z,70.46
2023-04-03T12:55:04.004Z,70.20
2023-04-03T12:58:22.606Z,69.91
2023-04-03T13:01:26.820Z,69.61
2023-04-03T13:04:29.572Z,70.09
2023-04-03T13:07:35.188Z,70.16
2023-04-03T13:10:49.293Z,69.25
2023-04-03T13:14:13.891Z,69.74
2023-04-03T13:17:17.046Z,69.05
2023-04-03T13:20:24.664Z,69.64
2023-04-03T13:23:26.269Z,69.43
2023-04-03T13:26:29.557Z,69.69
2023-04-03T13:29:37.116Z,69.63
2023-04-03T13:32:38.841Z,69.12
2023-04-03T13:35:42.203Z,69.30
2023-04-03T13:38:44.047Z,69.39
2023-04-03T13:41:51.418Z,68.90
2023-04-03T13:45:28.307Z,68.27
2023-04-03T13:48:36.595Z,67.62
2023-04-03T13:51:39.752Z,67.11
2023-04-03T13:54:41.489Z,67.54
2023-04-03T13:57:56.146Z,67.30
2023-04-03T14:01:18.746Z,66.35
2023-04-03T14:04:27.500Z,65.72
2023-04-03T14:07:30.816Z,65.89
2023-04-03T14:10:32.447Z,66.37
2023-04-03T14:13:34.045Z,65.59
2023-04-03T14:16:41.530Z,65.85
2023-04-03T14:19:43.368Z,64.68
2023-04-03T14:22:45.531Z,64.96
2023-04-03T14:25:47.492Z,64.60
2023-04-03T14:28:53.645Z,63.78
2023-04-03T14:32:07.390Z,63.57
2023-04-03T14:35:17.088Z,62.76
2023-04-03T14:38:28.760Z,62.67
2023-04-03T14:41:30.605Z,62.55
2023-04-03T14:44:32.202Z,63.09
2023-04-03T14:47:34.326Z,62.39
2023-04-03T14:50:36.280Z,61.84
2023-04-03T14:53:39.390Z,61.94
2023-04-03T14:56:41.344Z,62.36
2023-04-03T14:59:44.674Z,62.43
2023-04-03T15:02:47.601Z,62.36
2023-04-03T15:05:50.377Z,62.23
2023-04-03T15:08:51.954Z,62.32
2023-04-03T15:11:55.099Z,62.35
2023-04-03T15:15:01.760Z,61.55
2023-04-03T15:18:04.718Z,60.46
2023-04-03T15:21:06.711Z,60.12
2023-04-03T15:24:10.327Z,59.67
2023-04-03T15:27:13.343Z,59.72
2023-04-03T15:30:18.166Z,59.26
2023-04-03T15:33:19.949Z,58.77
2023-04-03T15:36:33.310Z,58.60
2023-04-03T15:39:36.684Z,58.55
2023-04-03T15:42:39.347Z,58.46
2023-04-03T15:45:41.555Z,58.90
2023-04-03T15:48:43.384Z,59.65
2023-04-03T15:51:45.130Z,60.16
2023-04-03T15:54:46.615Z,60.89
2023-04-03T15:57:48.256Z,61.52
2023-04-03T16:00:49.784Z,61.62
2023-04-03T16:03:51.514Z,61.47
2023-04-03T16:06:53.353Z,61.41
2023-04-03T16:09:54.959Z,61.98
2023-04-03T16:12:56.689Z,62.24
2023-04-03T16:15:58.428Z,62.18
2023-04-03T16:18:59.956Z,62.54
2023-04-03T16:22:01.579Z,62.55
2023-04-03T16:25:04.808Z,63.08
2023-04-03T16:28:06.594Z,63.05
2023-04-03T16:31:08.537Z,63.05
2023-04-03T16:34:10.792Z,62.80
2023-04-03T16:37:13.184Z,63.26
2023-04-03T16:40:15.272Z,63.44
2023-04-03T16:43:17.148Z,63.59
2023-04-03T16:46:18.976Z,63.51
2023-04-03T16:49:20.556Z,63.41
2023-04-03T16:52:22.316Z,63.82
2023-04-03T16:55:24.184Z,63.75
2023-04-03T16:58:25.956Z,63.87
2023-04-03T17:01:27.708Z,63.56
2023-04-03T17:04:29.624Z,63.71
2023-04-03T17:07:31.089Z,63.79
2023-04-03T17:10:33.077Z,63.79
2023-04-03T17:13:35.129Z,63.88
2023-04-03T17:16:37.944Z,63.98
2023-04-03T17:19:40.697Z,64.24
2023-04-03T17:22:42.403Z,64.33
2023-04-03T17:25:44.039Z,64.57
2023-04-03T17:28:46.369Z,64.97
2023-04-03T17:31:48.930Z,64.78
2023-04-03T17:34:50.906Z,64.75
2023-04-03T17:37:52.629Z,64.51
2023-04-03T17:40:58.313Z,65.10
2023-04-03T17:44:00.161Z,64.91
2023-04-03T17:47:01.721Z,65.05
2023-04-03T17:50:03.924Z,65.02
2023-04-03T17:53:05.519Z,65.21
2023-04-03T17:56:14.591Z,65.36
2023-04-03T17:59:16.761Z,65.57
2023-04-03T18:02:18.602Z,65.65
2023-04-03T18:05:20.524Z,65.57
2023-04-03T18:08:22.098Z,65.94
2023-04-03T18:11:27.332Z,65.72
2023-04-03T18:14:29.331Z,66.09
2023-04-03T18:17:31.086Z,66.05
2023-04-03T18:20:32.740Z,65.93
2023-04-03T18:23:36.593Z,65.96
2023-04-03T18:26:38.690Z,65.92
2023-04-03T18:29:41.130Z,66.22
2023-04-03T18:32:42.911Z,66.17
2023-04-03T18:35:45.035Z,66.46
2023-04-03T18:38:46.674Z,66.69
2023-04-03T18:41:49.140Z,67.00
2023-04-03T18:44:53.862Z,66.77
2023-04-03T18:47:55.930Z,66.92
2023-04-03T18:50:57.759Z,66.77
2023-04-03T18:53:59.565Z,66.91
2023-04-03T18:57:01.540Z,67.08
2023-04-03T19:00:03.563Z,67.31
2023-04-03T19:03:05.669Z,67.16
2023-04-03T19:06:07.631Z,67.42
2023-04-03T19:09:09.570Z,67.66
2023-04-03T19:12:11.211Z,67.69
2023-04-03T19:15:14.560Z,67.68
2023-04-03T19:18:16.338Z,67.99
2023-04-03T19:21:18.372Z,67.58
2023-04-03T19:24:20.205Z,67.53
2023-04-03T19:27:21.833Z,67.79
2023-04-03T19:30:23.621Z,67.90
2023-04-03T19:33:26.345Z,68.28
2023-04-03T19:36:28.244Z,68.44
2023-04-03T19:39:32.272Z,68.46
2023-04-03T19:42:34.195Z,68.36
2023-04-03T19:45:35.650Z,68.37
2023-04-03T19:48:37.646Z,68.89
2023-04-03T19:51:39.282Z,69.24
2023-04-03T19:54:41.074Z,69.82
2023-04-03T19:57:42.628Z,70.11
2023-04-03T20:00:44.727Z,69.89
2023-04-03T20:03:46.382Z,70.13
2023-04-03T20:06:48.242Z,70.28
2023-04-03T20:09:49.760Z,70.43
2023-04-03T20:12:51.878Z,70.92
2023-04-03T20:15:53.724Z,70.55
2023-04-03T20:18:56.536Z,69.94
2023-04-03T20:22:00.823Z,70.02
2023-04-03T20:25:06.431Z,70.38
2023-04-03T20:28:08.684Z,70.35
2023-04-03T20:31:10.423Z,70.46
2023-04-03T20:34:12.057Z,70.40
2023-04-03T20:37:13.903Z,70.61
2023-04-03T20:40:15.575Z,70.48
2023-04-03T20:43:17.145Z,70.14
2023-04-03T20:46:18.912Z,70.27
2023-04-03T20:49:21.743Z,70.19
2023-04-03T20:52:23.380Z,70.37
2023-04-03T20:55:25.046Z,70.44
2023-04-03T20:58:30.125Z,69.94
2023-04-03T21:01:32.402Z,70.16
2023-04-03T21:04:39.976Z,70.09
2023-04-03T21:08:19.830Z,70.38
2023-04-03T21:11:59.387Z,70.15
2023-04-03T21:15:39.033Z,70.33
2023-04-03T21:18:55.886Z,70.10
2023-04-03T21:22:00.660Z,70.33
2023-04-03T21:25:02.353Z,69.97
2023-04-03T21:28:03.805Z,70.09
2023-04-03T21:31:05.585Z,70.16
2023-04-03T21:34:07.371Z,70.02
2023-04-03T21:37:08.945Z,70.27
2023-04-03T21:40:10.784Z,70.25
2023-04-03T21:43:12.593Z,70.25
2023-04-03T21:46:14.325Z,70.44
2023-04-03T21:49:15.912Z,69.96
2023-04-03T21:52:17.586Z,70.13
2023-04-03T21:55:19.302Z,70.07
2023-04-03T21:58:21.427Z,70.15
2023-04-03T22:01:23.016Z,69.98
2023-04-03T22:04:24.585Z,70.28
2023-04-03T22:07:26.517Z,70.26
2023-04-03T22:10:28.040Z,70.22
2023-04-03T22:13:30.536Z,70.22
2023-04-03T22:16:32.386Z,70.38
2023-04-03T22:19:35.506Z,70.36
2023-04-03T22:22:37.003Z,70.03
2023-04-03T22:25:38.516Z,70.07
2023-04-03T22:28:43.610Z,70.14
2023-04-03T22:31:45.243Z,70.37
2023-04-03T22:34:46.817Z,70.08
2023-04-03T22:37:48.380Z,70.07
2023-04-03T22:41:00.265Z,69.91
2023-04-03T22:44:01.797Z,69.84
2023-04-03T22:47:03.524Z,69.93
2023-04-03T22:50:05.836Z,70.05
2023-04-03T22:53:07.408Z,69.88
2023-04-03T22:56:08.967Z,69.81
2023-04-03T22:59:10.559Z,69.79
2023-04-03T23:02:12.342Z,69.98
2023-04-03T23:05:16.983Z,69.65
2023-04-03T23:08:19.120Z,69.92
2023-04-03T23:11:21.062Z,69.69
2023-04-03T23:14:22.760Z,69.88
2023-04-03T23:17:24.399Z,69.62
2023-04-03T23:20:25.938Z,69.45
2023-04-03T23:23:27.553Z,69.86
2023-04-03T23:26:29.169Z,69.95
2023-04-03T23:29:33.805Z,69.75
2023-04-03T23:32:35.400Z,69.75
2023-04-03T23:35:50.716Z,69.75
2023-04-03T23:38:56.247Z,69.62
2023-04-03T23:41:58.032Z,69.79
2023-04-03T23:44:59.746Z,69.73
2023-04-03T23:48:01.360Z,69.69
2023-04-03T23:51:03.094Z,69.87
2023-04-03T23:54:04.630Z,69.69
2023-04-03T23:57:06.169Z,69.84
